createdAt,value
2023-02-04T00:00:39.067Z,24.20
2023-02-04T00:03:11.892Z,22.82
2023-02-04T00:05:45.380Z,23.83
2023-02-04T00:08:18.002Z,22.13
2023-02-04T00:10:51.694Z,21.45
2023-02-04T00:13:24.518Z,22.15
2023-02-04T00:15:58.201Z,22.40
2023-02-04T00:18:31.799Z,20.93
2023-02-04T00:21:04.665Z,19.50
2023-02-04T00:23:37.764Z,20.23
2023-02-04T00:26:12.224Z,20.57
2023-02-04T00:28:45.526Z,21.65
2023-02-04T00:31:20.253Z,20.48
2023-02-04T00:33:53.512Z,20.32
2023-02-04T00:36:26.253Z,20.25
2023-02-04T00:38:59.147Z,19.48
2023-02-04T00:41:32.066Z,20.15
2023-02-04T00:44:05.551Z,20.57
2023-02-04T00:46:38.497Z,19.17
2023-02-04T00:49:12.442Z,18.57
2023-02-04T00:51:47.895Z,18.73
2023-02-04T00:54:20.956Z,18.45
2023-02-04T00:56:53.807Z,19.02
2023-02-04T00:59:27.743Z,19.35
2023-02-04T01:02:00.823Z,19.12
2023-02-04T01:04:34.603Z,18.10
2023-02-04T01:07:08.868Z,19.62
2023-02-04T01:12:14.091Z,19.48
2023-02-04T01:14:47.525Z,19.07
2023-02-04T01:17:21.458Z,20.50
2023-02-04T01:19:55.293Z,19.50
2023-02-04T01:22:29.406Z,18.82
2023-02-04T01:25:02.231Z,19.45
2023-02-04T01:27:47.670Z,16.48
2023-02-04T01:30:21.133Z,17.42
2023-02-04T01:32:54.363Z,19.00
2023-02-04T01:35:27.540Z,18.02
2023-02-04T01:38:00.598Z,17.62
2023-02-04T01:40:35.025Z,22.42
2023-02-04T01:43:08.668Z,26.45
2023-02-04T01:45:41.585Z,28.38
2023-02-04T01:48:16.212Z,31.02
2023-02-04T01:50:54.363Z,27.67
2023-02-04T01:53:28.537Z,29.87
2023-02-04T01:56:02.013Z,27.70
2023-02-04T01:58:35.902Z,24.95
2023-02-04T02:01:15.109Z,25.88
2023-02-04T02:03:47.799Z,23.85
2023-02-04T02:06:21.194Z,22.90
2023-02-04T02:08:54.777Z,24.07
2023-02-04T02:11:28.733Z,24.70
2023-02-04T02:14:02.741Z,24.35
2023-02-04T02:16:35.947Z,21.75
2023-02-04T02:19:11.717Z,21.77
2023-02-04T02:21:49.199Z,22.07
2023-02-04T02:24:34.362Z,23.67
2023-02-04T02:27:10.648Z,20.43
2023-02-04T02:29:44.588Z,21.75
2023-02-04T02:34:50.843Z,19.42
2023-02-04T02:37:23.688Z,16.37
2023-02-04T02:39:56.577Z,11.55
2023-02-04T02:42:29.555Z,8.43
2023-02-04T02:45:07.077Z,9.78
2023-02-04T02:47:40.056Z,8.40
2023-02-04T02:50:16.731Z,8.75
2023-02-04T02:52:49.645Z,9.03
2023-02-04T02:55:25.766Z,10.80
2023-02-04T02:57:59.221Z,11.12
2023-02-04T03:00:32.867Z,10.95
2023-02-04T03:03:22.496Z,11.38
2023-02-04T03:05:59.483Z,9.68
2023-02-04T03:08:33.198Z,10.18
2023-02-04T03:11:06.615Z,8.97
2023-02-04T03:16:12.758Z,8.95
2023-02-04T03:18:45.708Z,8.85
2023-02-04T03:21:18.827Z,7.87
2023-02-04T03:23:52.080Z,8.93
2023-02-04T03:26:26.760Z,7.92
2023-02-04T03:29:00.650Z,8.45
2023-02-04T03:31:34.238Z,8.88
2023-02-04T03:34:07.564Z,7.33
2023-02-04T03:36:40.660Z,8.10
2023-02-04T03:39:14.039Z,8.05
2023-02-04T03:41:47.439Z,7.90
2023-02-04T03:44:22.123Z,8.43
2023-02-04T03:46:56.761Z,8.83
2023-02-04T03:49:29.642Z,8.73
2023-02-04T03:52:02.825Z,8.28
2023-02-04T03:54:35.985Z,9.27
2023-02-04T03:57:08.844Z,9.38
2023-02-04T03:59:42.033Z,7.67
2023-02-04T04:02:14.743Z,8.03
2023-02-04T04:04:47.716Z,7.22
2023-02-04T04:07:20.438Z,7.95
2023-02-04T04:09:53.666Z,9.25
2023-02-04T04:12:26.823Z,7.65
2023-02-04T04:15:00.405Z,6.95
2023-02-04T04:17:33.590Z,7.62
2023-02-04T04:20:08.174Z,7.70
2023-02-04T04:22:41.211Z,7.35
2023-02-04T04:25:13.964Z,7.28
2023-02-04T04:27:46.954Z,7.87
2023-02-04T04:30:20.777Z,9.27
2023-02-04T04:32:53.560Z,8.45
2023-02-04T04:35:27.052Z,8.73
2023-02-04T04:37:59.885Z,9.10
2023-02-04T04:40:33.476Z,10.43
2023-02-04T04:43:06.657Z,10.80
2023-02-04T04:45:39.982Z,9.53
2023-02-04T04:48:12.892Z,10.08
2023-02-04T04:50:46.258Z,9.98
2023-02-04T04:53:19.498Z,10.17
2023-02-04T04:55:52.240Z,11.00
2023-02-04T04:58:25.399Z,10.03
2023-02-04T05:00:58.671Z,9.73
2023-02-04T05:03:31.631Z,10.28
2023-02-04T05:06:04.913Z,10.43
2023-02-04T05:08:38.160Z,9.80
2023-02-04T05:11:11.678Z,8.45
2023-02-04T05:13:44.586Z,9.65
2023-02-04T05:16:18.544Z,10.25
2023-02-04T05:18:51.448Z,10.78
2023-02-04T05:21:24.431Z,8.98
2023-02-04T05:23:57.280Z,10.45
2023-02-04T05:26:31.339Z,10.43
2023-02-04T05:29:04.775Z,10.75
2023-02-04T05:31:38.005Z,11.78
2023-02-04T05:34:10.818Z,11.12
2023-02-04T05:36:44.252Z,11.63
2023-02-04T05:39:17.295Z,11.87
2023-02-04T05:41:50.271Z,10.93
2023-02-04T05:44:23.261Z,11.22
2023-02-04T05:46:56.235Z,11.15
2023-02-04T05:49:29.284Z,12.00
2023-02-04T05:52:02.208Z,11.63
2023-02-04T05:54:35.420Z,10.88
2023-02-04T05:57:08.617Z,11.10
2023-02-04T05:59:41.899Z,10.47
2023-02-04T06:02:16.456Z,13.68
2023-02-04T06:04:49.559Z,12.05
2023-02-04T06:07:22.502Z,12.65
2023-02-04T06:09:55.581Z,9.75
2023-02-04T06:12:28.464Z,9.60
2023-02-04T06:15:01.562Z,10.38
2023-02-04T06:17:34.800Z,10.15
2023-02-04T06:20:08.941Z,9.90
2023-02-04T06:22:42.260Z,9.48
2023-02-04T06:25:15.578Z,11.03
2023-02-04T06:27:49.386Z,10.77
2023-02-04T06:30:22.407Z,10.72
2023-02-04T06:32:55.603Z,12.20
2023-02-04T06:35:28.514Z,10.20
2023-02-04T06:38:01.878Z,11.33
2023-02-04T06:40:34.985Z,10.65
2023-02-04T06:43:08.043Z,11.35
2023-02-04T06:45:41.476Z,12.30
2023-02-04T06:48:14.653Z,13.22
2023-02-04T06:50:47.960Z,12.07
2023-02-04T06:53:21.040Z,12.58
2023-02-04T06:55:53.820Z,12.25
2023-02-04T06:58:26.824Z,12.45
2023-02-04T07:00:59.749Z,20.77
2023-02-04T07:03:32.615Z,17.92
2023-02-04T07:08:38.419Z,11.90
2023-02-04T07:11:12.588Z,12.10
2023-02-04T07:13:45.626Z,18.37
2023-02-04T07:16:18.779Z,17.10
2023-02-04T07:18:51.787Z,13.60
2023-02-04T07:21:24.714Z,12.28
2023-02-04T07:23:57.558Z,12.68
2023-02-04T07:26:32.169Z,12.13
2023-02-04T07:29:07.121Z,14.00
2023-02-04T07:31:39.894Z,13.98
2023-02-04T07:34:16.160Z,16.20
2023-02-04T07:36:49.022Z,13.45
2023-02-04T07:39:22.409Z,16.52
2023-02-04T07:41:55.687Z,13.30
2023-02-04T07:44:30.105Z,13.20
2023-02-04T07:47:02.898Z,14.53
2023-02-04T07:49:35.685Z,17.20
2023-02-04T07:52:09.881Z,16.02
2023-02-04T07:54:43.187Z,15.20
2023-02-04T07:57:15.894Z,12.88
2023-02-04T07:59:49.195Z,13.75
2023-02-04T08:02:22.237Z,14.18
2023-02-04T08:04:55.176Z,12.43
2023-02-04T08:07:28.148Z,15.35
2023-02-04T08:10:01.025Z,12.30
2023-02-04T08:12:34.927Z,12.23
2023-02-04T08:15:09.379Z,11.35
2023-02-04T08:17:43.065Z,10.95
2023-02-04T08:20:17.938Z,11.00
2023-02-04T08:22:50.987Z,10.30
2023-02-04T08:25:23.876Z,9.88
2023-02-04T08:27:57.483Z,9.83
2023-02-04T08:30:32.215Z,10.03
2023-02-04T08:33:05.929Z,10.88
2023-02-04T08:35:38.824Z,10.53
2023-02-04T08:38:11.631Z,10.10
2023-02-04T08:40:44.972Z,10.45
2023-02-04T08:43:17.748Z,10.85
2023-02-04T08:45:51.403Z,10.18
2023-02-04T08:48:24.201Z,9.40
2023-02-04T08:50:57.516Z,10.20
2023-02-04T08:53:30.731Z,10.23
2023-02-04T08:56:03.779Z,15.50
2023-02-04T08:58:38.009Z,10.90
2023-02-04T09:01:11.633Z,9.53
2023-02-04T09:03:45.149Z,9.98
2023-02-04T09:06:18.038Z,9.40
2023-02-04T09:08:50.879Z,8.50
2023-02-04T09:11:24.148Z,9.40
2023-02-04T09:13:58.565Z,11.03
2023-02-04T09:16:31.850Z,11.68
2023-02-04T09:19:06.612Z,8.90
2023-02-04T09:21:39.685Z,8.70
2023-02-04T09:24:12.678Z,8.53
2023-02-04T09:26:45.756Z,8.23
2023-02-04T09:29:19.004Z,8.23
2023-02-04T09:31:51.947Z,9.25
2023-02-04T09:34:25.481Z,8.00
2023-02-04T09:36:58.249Z,8.98
2023-02-04T09:39:31.676Z,9.10
2023-02-04T09:42:05.108Z,9.53
2023-02-04T09:44:38.573Z,9.73
2023-02-04T09:47:13.473Z,9.40
2023-02-04T09:49:47.692Z,9.10
2023-02-04T09:52:20.925Z,8.70
2023-02-04T09:54:53.916Z,9.30
2023-02-04T09:57:26.675Z,8.70
2023-02-04T09:59:59.309Z,9.83
2023-02-04T10:02:32.460Z,7.65
2023-02-04T10:05:05.607Z,6.67
2023-02-04T10:07:38.684Z,6.72
2023-02-04T10:10:25.438Z,6.80
2023-02-04T10:13:01.256Z,7.10
2023-02-04T10:15:35.655Z,6.85
2023-02-04T10:18:10.441Z,6.20
2023-02-04T10:20:43.413Z,7.00
2023-02-04T10:23:16.878Z,7.07
2023-02-04T10:25:49.707Z,5.62
2023-02-04T10:28:22.750Z,6.62
2023-02-04T10:30:55.784Z,6.70
2023-02-04T10:33:29.113Z,6.20
2023-02-04T10:36:02.157Z,7.08
2023-02-04T10:38:36.002Z,6.10
2023-02-04T10:43:44.058Z,6.33
2023-02-04T10:46:20.586Z,6.47
2023-02-04T10:48:54.132Z,7.33
2023-02-04T10:54:18.441Z,6.30
2023-02-04T10:56:52.429Z,5.67
2023-02-04T10:59:28.241Z,5.30
2023-02-04T11:02:04.166Z,6.83
2023-02-04T11:04:38.741Z,7.17
2023-02-04T11:07:14.434Z,7.62
2023-02-04T11:09:48.778Z,5.83
2023-02-04T11:12:46.722Z,6.12
2023-02-04T11:15:50.796Z,5.35
2023-02-04T11:18:30.207Z,5.58
2023-02-04T11:21:03.395Z,5.33
2023-02-04T11:23:37.580Z,5.72
2023-02-04T11:26:22.451Z,5.47
2023-02-04T11:29:06.056Z,5.65
2023-02-04T11:31:59.040Z,5.58
2023-02-04T11:34:33.959Z,5.22
2023-02-04T11:37:20.128Z,4.83
2023-02-04T11:39:53.197Z,6.00
2023-02-04T11:42:42.594Z,5.62
2023-02-04T11:45:22.743Z,4.95
2023-02-04T11:47:58.842Z,4.78
2023-02-04T11:50:35.377Z,4.85
2023-02-04T11:53:11.497Z,5.33
2023-02-04T11:55:48.490Z,5.62
2023-02-04T11:58:24.548Z,5.65
2023-02-04T12:00:57.530Z,6.25
2023-02-04T12:03:36.844Z,7.20
2023-02-04T12:06:09.686Z,6.97
2023-02-04T12:08:43.204Z,7.85
2023-02-04T12:11:29.937Z,7.70
2023-02-04T12:14:14.077Z,6.33
2023-02-04T12:16:52.387Z,6.50
2023-02-04T12:19:27.583Z,8.35
2023-02-04T12:21:59.727Z,5.90
2023-02-04T12:24:32.687Z,5.85
2023-02-04T12:27:05.716Z,5.35
2023-02-04T12:29:39.123Z,6.42
2023-02-04T12:32:11.935Z,6.97
2023-02-04T12:34:45.407Z,6.30
2023-02-04T12:37:18.368Z,7.42
2023-02-04T12:39:51.130Z,6.87
2023-02-04T12:42:24.238Z,8.00
2023-02-04T12:44:57.080Z,6.35
2023-02-04T12:47:29.922Z,6.85
2023-02-04T12:50:03.029Z,7.45
2023-02-04T12:52:37.205Z,8.15
2023-02-04T12:55:10.915Z,7.50
2023-02-04T12:57:43.917Z,8.40
2023-02-04T13:00:19.288Z,7.92
2023-02-04T13:02:52.155Z,9.13
2023-02-04T13:05:25.023Z,8.35
2023-02-04T13:07:58.953Z,9.43
2023-02-04T13:10:31.907Z,9.23
2023-02-04T13:15:39.390Z,9.38
2023-02-04T13:18:12.227Z,10.15
2023-02-04T13:20:46.319Z,9.55
2023-02-04T13:23:19.127Z,8.65
2023-02-04T13:25:52.186Z,7.22
2023-02-04T13:28:25.106Z,7.90
2023-02-04T13:30:58.100Z,8.03
2023-02-04T13:33:31.252Z,8.30
2023-02-04T13:36:04.756Z,7.55
2023-02-04T13:38:37.722Z,7.17
2023-02-04T13:41:10.861Z,8.20
2023-02-04T13:43:44.029Z,8.20
2023-02-04T13:46:17.014Z,6.97
2023-02-04T13:48:51.024Z,7.95
2023-02-04T13:51:24.152Z,8.40
2023-02-04T13:53:57.474Z,8.13
2023-02-04T13:56:32.348Z,9.15
2023-02-04T13:59:05.832Z,7.95
2023-02-04T14:01:39.406Z,8.35
2023-02-04T14:04:12.084Z,7.45
2023-02-04T14:06:44.984Z,7.42
2023-02-04T14:09:18.144Z,6.30
2023-02-04T14:11:52.045Z,7.10
2023-02-04T14:14:24.885Z,7.08
2023-02-04T14:16:58.486Z,7.22
2023-02-04T14:19:31.498Z,7.22
2023-02-04T14:22:04.491Z,6.58
2023-02-04T14:24:39.016Z,6.78
2023-02-04T14:27:12.485Z,7.10
2023-02-04T14:29:45.352Z,7.35
2023-02-04T14:32:18.753Z,8.00
2023-02-04T14:34:52.607Z,7.80
2023-02-04T14:37:27.408Z,7.75
2023-02-04T14:40:01.395Z,8.83
2023-02-04T14:42:34.511Z,9.88
2023-02-04T14:45:12.596Z,9.58
2023-02-04T14:47:46.539Z,9.63
2023-02-04T14:50:20.104Z,9.93
2023-02-04T14:52:52.935Z,9.40
2023-02-04T14:55:27.477Z,8.45
2023-02-04T14:58:00.443Z,9.13
2023-02-04T15:00:34.083Z,10.40
2023-02-04T15:03:07.533Z,9.63
2023-02-04T15:05:41.309Z,10.18
2023-02-04T15:08:14.207Z,9.75
2023-02-04T15:10:47.696Z,9.55
2023-02-04T15:13:21.297Z,10.43
2023-02-04T15:18:27.525Z,9.48
2023-02-04T15:21:02.100Z,10.80
2023-02-04T15:23:35.759Z,10.53
2023-02-04T15:26:08.583Z,12.00
2023-02-04T15:28:42.586Z,10.43
2023-02-04T15:31:15.662Z,10.65
2023-02-04T15:33:49.376Z,11.50
2023-02-04T15:36:22.439Z,11.30
2023-02-04T15:38:55.221Z,12.40
2023-02-04T15:41:27.853Z,12.53
2023-02-04T15:44:00.744Z,11.18
2023-02-04T15:46:36.437Z,11.87
2023-02-04T15:49:09.669Z,12.73
2023-02-04T15:51:42.959Z,13.67
2023-02-04T15:54:16.668Z,13.18
2023-02-04T15:56:49.729Z,14.05
2023-02-04T15:59:23.616Z,15.30
2023-02-04T16:01:57.210Z,15.25
2023-02-04T16:04:30.264Z,16.48
2023-02-04T16:07:04.944Z,14.90
2023-02-04T16:09:38.669Z,13.70
2023-02-04T16:12:11.939Z,12.82
2023-02-04T16:14:44.895Z,13.08
2023-02-04T16:17:19.154Z,14.58
2023-02-04T16:19:52.707Z,14.38
2023-02-04T16:22:26.081Z,12.93
2023-02-04T16:24:59.325Z,12.05
2023-02-04T16:27:32.194Z,13.45
2023-02-04T16:30:06.563Z,12.43
2023-02-04T16:32:39.416Z,14.03
2023-02-04T16:35:12.286Z,13.32
2023-02-04T16:37:45.771Z,14.93
2023-02-04T16:40:19.713Z,12.73
2023-02-04T16:42:52.821Z,14.43
2023-02-04T16:45:25.680Z,14.23
2023-02-04T16:47:58.594Z,13.55
2023-02-04T16:50:32.806Z,14.78
2023-02-04T16:53:06.120Z,16.15
2023-02-04T16:55:39.925Z,14.63
2023-02-04T16:58:13.833Z,14.68
2023-02-04T17:00:46.887Z,12.82
2023-02-04T17:03:20.398Z,10.93
2023-02-04T17:05:53.121Z,11.75
2023-02-04T17:08:26.401Z,11.90
2023-02-04T17:11:17.234Z,12.27
2023-02-04T17:13:50.101Z,12.73
2023-02-04T17:16:23.640Z,12.23
2023-02-04T17:18:57.241Z,12.05
2023-02-04T17:21:31.681Z,11.63
2023-02-04T17:24:04.627Z,12.35
2023-02-04T17:26:39.880Z,11.45
2023-02-04T17:29:17.567Z,12.23
2023-02-04T17:31:50.536Z,12.07
2023-02-04T17:34:23.996Z,10.10
2023-02-04T17:36:57.830Z,12.18
2023-02-04T17:39:32.373Z,11.65
2023-02-04T17:42:05.516Z,12.28
2023-02-04T17:44:38.562Z,13.08
2023-02-04T17:47:11.671Z,12.13
2023-02-04T17:49:44.636Z,13.00
2023-02-04T17:52:17.417Z,13.55
2023-02-04T17:54:50.726Z,13.38
2023-02-04T17:57:23.948Z,12.45
2023-02-04T17:59:57.206Z,13.13
2023-02-04T18:02:32.298Z,11.15
2023-02-04T18:05:16.078Z,10.70
2023-02-04T18:08:00.746Z,10.45
2023-02-04T18:13:26.641Z,11.68
2023-02-04T18:16:03.149Z,9.15
2023-02-04T18:18:41.198Z,10.68
2023-02-04T18:21:34.332Z,10.13
2023-02-04T18:24:30.628Z,10.82
2023-02-04T18:27:19.465Z,11.28
2023-02-04T18:29:59.318Z,10.72
2023-02-04T18:32:41.075Z,10.38
2023-02-04T18:35:40.301Z,9.83
2023-02-04T18:38:37.712Z,11.38
2023-02-04T18:41:23.712Z,10.32
2023-02-04T18:44:06.289Z,11.40
2023-02-04T18:46:43.195Z,10.50
2023-02-04T18:49:29.347Z,11.48
2023-02-04T18:52:06.573Z,11.50
2023-02-04T18:54:42.488Z,11.38
2023-02-04T18:57:24.434Z,11.85
2023-02-04T19:00:18.444Z,12.80
2023-02-04T19:03:00.862Z,12.85
2023-02-04T19:05:40.362Z,12.73
2023-02-04T19:08:29.388Z,12.20
2023-02-04T19:11:02.739Z,13.68
2023-02-04T19:13:44.531Z,13.20
2023-02-04T19:16:36.662Z,13.05
2023-02-04T19:19:42.397Z,13.35
2023-02-04T19:22:21.836Z,13.15
2023-02-04T19:25:20.708Z,14.28
2023-02-04T19:28:00.284Z,12.07
2023-02-04T19:30:38.269Z,11.78
2023-02-04T19:33:33.209Z,10.48
2023-02-04T19:36:40.221Z,10.63
2023-02-04T19:39:34.109Z,11.08
2023-02-04T19:42:26.983Z,11.10
2023-02-04T19:45:03.324Z,10.48
2023-02-04T19:47:45.571Z,9.50
2023-02-04T19:50:36.907Z,9.53
2023-02-04T19:53:27.096Z,10.03
2023-02-04T19:55:59.973Z,9.58
2023-02-04T19:58:43.691Z,9.88
2023-02-04T20:01:21.212Z,9.53
2023-02-04T20:03:54.072Z,11.05
2023-02-04T20:06:36.496Z,9.78
2023-02-04T20:09:29.707Z,10.10
2023-02-04T20:12:06.643Z,9.23
2023-02-04T20:14:53.949Z,9.35
2023-02-04T20:17:41.809Z,9.48
2023-02-04T20:20:32.820Z,9.58
2023-02-04T20:23:30.608Z,8.78
2023-02-04T20:26:03.827Z,9.30
2023-02-04T20:28:42.605Z,8.57
2023-02-04T20:31:26.071Z,9.45
2023-02-04T20:34:01.119Z,8.98
2023-02-04T20:36:39.387Z,9.03
2023-02-04T20:39:36.448Z,10.35
2023-02-04T20:42:25.659Z,9.45
2023-02-04T20:45:20.078Z,8.60
2023-02-04T20:47:57.794Z,8.93
2023-02-04T20:50:52.296Z,8.93
2023-02-04T20:53:57.390Z,9.13
2023-02-04T20:56:39.545Z,8.63
2023-02-04T20:59:31.116Z,10.13
2023-02-04T21:02:05.228Z,9.00
2023-02-04T21:04:47.206Z,9.75
2023-02-04T21:07:23.190Z,9.20
2023-02-04T21:09:58.121Z,9.75
2023-02-04T21:12:32.264Z,9.60
2023-02-04T21:15:05.007Z,8.40
2023-02-04T21:17:37.891Z,9.25
2023-02-04T21:20:12.230Z,8.98
2023-02-04T21:22:45.757Z,9.25
2023-02-04T21:25:18.956Z,10.38
2023-02-04T21:27:52.309Z,10.20
2023-02-04T21:30:27.589Z,10.25
2023-02-04T21:33:02.157Z,10.10
2023-02-04T21:38:08.447Z,10.45
2023-02-04T21:40:41.759Z,11.10
2023-02-04T21:43:14.954Z,9.70
2023-02-04T21:45:47.949Z,10.30
2023-02-04T21:48:20.657Z,10.68
2023-02-04T21:50:54.791Z,11.55
2023-02-04T21:53:27.736Z,11.78
2023-02-04T21:56:00.817Z,11.40
2023-02-04T21:58:34.174Z,12.50
2023-02-04T22:01:07.550Z,11.73
2023-02-04T22:03:40.433Z,13.23
2023-02-04T22:06:13.531Z,13.20
2023-02-04T22:08:46.638Z,13.03
2023-02-04T22:11:20.010Z,13.18
2023-02-04T22:13:53.412Z,13.25
2023-02-04T22:16:27.052Z,12.40
2023-02-04T22:19:00.473Z,13.65
2023-02-04T22:21:35.147Z,13.95
2023-02-04T22:24:08.430Z,13.75
2023-02-04T22:26:41.474Z,12.40
2023-02-04T22:29:15.113Z,12.78
2023-02-04T22:31:47.855Z,13.30
2023-02-04T22:34:20.943Z,14.55
2023-02-04T22:36:55.818Z,13.13
2023-02-04T22:39:28.738Z,14.15
2023-02-04T22:42:02.222Z,14.15
2023-02-04T22:44:35.098Z,13.10
2023-02-04T22:47:08.555Z,14.65
2023-02-04T22:49:44.358Z,15.17
2023-02-04T22:52:17.858Z,14.40
2023-02-04T22:54:50.722Z,14.40
2023-02-04T22:57:23.979Z,15.60
2023-02-04T22:59:56.785Z,14.80
2023-02-04T23:02:30.039Z,14.78
2023-02-04T23:05:03.084Z,15.60
2023-02-04T23:07:37.351Z,15.18
2023-02-04T23:10:10.884Z,16.48
2023-02-04T23:12:44.439Z,16.27
2023-02-04T23:15:17.603Z,16.15
2023-02-04T23:17:52.641Z,16.27
2023-02-04T23:20:25.485Z,15.63
2023-02-04T23:22:58.715Z,16.62
2023-02-04T23:25:32.021Z,16.95
2023-02-04T23:28:06.155Z,16.93
2023-02-04T23:30:39.267Z,16.07
2023-02-04T23:33:12.078Z,15.50
2023-02-04T23:35:44.937Z,13.70
2023-02-04T23:38:17.885Z,14.35
2023-02-04T23:40:51.452Z,14.25
2023-02-04T23:43:24.352Z,13.65
2023-02-04T23:45:57.553Z,14.40
2023-02-04T23:48:31.570Z,15.30
2023-02-04T23:51:06.604Z,13.93
2023-02-04T23:56:12.135Z,14.23
2023-02-04T23:58:44.957Z,14.50
